Upper Jay, New York
Current Conditions -  °F | °C
As of 6:51 AM on Thursday 23 Oct 2014 (Local Time) from KSLK Reporting Station
Overcast Overcast  
Wind Chill:   Ceiling: 1300
Heat Index:   Visibility: 10mi
Dew Point:   Wind: 6mph
Humidity: 89%   Direction: 10°N
Pressure: 29.99"   Gusts: NA
Location:  44.34°N, 73.78°W
Report Text: KSLK 231051Z AUTO 01005KT 10SM OVC013 04/02 A2999 RMK AO2 SLP165 T00390022
Loading
Personal Weather Stations






























Interactive Weather Map
Tropical Storm Tracking
New forecast layout! Learn more

10-Day Weather Forecast

Advertisements
Track Severe Weather on mobile